Candice L — WDE7659 — position and weather

sailwx.info

Track history (hours):
 
Tides and Currents Weather Stations Pressure Air Temp Water Temp Dewpoint Dewpoint Depression Visibility Wind Speed Wind Dir Waves Ship Positions

Candice L

Owner: Robbins Maritime, Norfolk, VA. More information available from US FCC via Universal Licensing System and Coast Guard Vessel Documentation Center.

Last reported at 2017-Nov-18 14:19 UTC. Time now 2017-Nov-18 19:32 UTC.
Position N 39°20' W 074°25'.

Length 17 m; draft 3.5 m.

Type: Tug. MMSI: 367395980.

Date/timePositionNaut miles runAvg speedWind from/ knotsBaromVisibWave heightAir tempDewpointWater temp
2017-Nov-18 14:19N 39°20' W 074°25'2 5.7
2017-Nov-18 14:00N 39°19' W 074°27'3 5.6
2017-Nov-18 13:30N 39°18' W 074°30'5 4.1
2017-Nov-18 12:24N 39°21' W 074°26'3 3.0
2017-Nov-18 11:21N 39°24' W 074°26'  
2017-Nov-14 11:07N 39°23' W 074°25'1 0.7
2017-Nov-14 09:23N 39°24' W 074°26'0 0.0
2017-Nov-14 08:59N 39°24' W 074°26'0 0.0
2017-Nov-14 08:29N 39°24' W 074°26'0 0.0
2017-Nov-14 07:59N 39°24' W 074°26'0 0.0
2017-Nov-14 07:29N 39°24' W 074°26'0 0.0
2017-Nov-14 06:53N 39°24' W 074°26'0 0.0
2017-Nov-14 06:29N 39°24' W 074°26'26 0.9
2017-Nov-13 01:51N 39°46' W 074°07'0 0.0
2017-Nov-13 00:30N 39°46' W 074°07'0 0.0
2017-Nov-12 23:59N 39°46' W 074°07'0 0.0
2017-Nov-12 23:24N 39°46' W 074°07'0 0.0
2017-Nov-12 20:20N 39°46' W 074°07'0 0.5
2017-Nov-12 19:59N 39°46' W 074°07'0 0.1
2017-Nov-12 18:03N 39°46' W 074°07'0 0.0
2017-Nov-12 17:57N 39°46' W 074°07'0 0.3
2017-Nov-12 16:33N 39°46' W 074°07'0 0.7
2017-Nov-12 16:25N 39°46' W 074°07'1 2.8
2017-Nov-12 15:59N 39°46' W 074°06'3 5.3
2017-Nov-12 15:30N 39°48' W 074°04'9 3.5
2017-Nov-12 12:58N 39°57' W 074°04'3 6.5
2017-Nov-12 12:30N 39°54' W 074°03'4 7.8
2017-Nov-12 12:01N 39°50' W 074°04'4 8.3
2017-Nov-12 11:30N 39°46' W 074°05'1 2.4
2017-Nov-12 10:54N 39°46' W 074°07'0 0.0
2017-Nov-12 10:27N 39°46' W 074°07'3 5.7
2017-Nov-12 10:00N 39°47' W 074°04'1 0.4
2017-Nov-12 06:47N 39°46' W 074°04'3 2.2
2017-Nov-12 05:29N 39°43' W 074°06'1 2.4
2017-Nov-12 04:53N 39°42' W 074°07'1 2.5
2017-Nov-12 04:17N 39°41' W 074°07'1 2.5
2017-Nov-12 03:59N 39°40' W 074°08'  
Track history (hours):
 
Tides and Currents Weather Stations Pressure Air Temp Water Temp Dewpoint Dewpoint Depression Visibility Wind Speed Wind Dir Waves Ship Positions

Candice L

Owner: Robbins Maritime, Norfolk, VA. More information available from US FCC via Universal Licensing System and Coast Guard Vessel Documentation Center.

Last reported at 2017-Nov-18 14:19 UTC. Time now 2017-Nov-18 19:32 UTC.
Position N 39°20' W 074°25'.

Length 17 m; draft 3.5 m.

Type: Tug. MMSI: 367395980.

Date/timePositionNaut miles runAvg speedWind from/ knotsBaromVisibWave heightAir tempDewpointWater temp
2017-Nov-18 14:19N 39°20' W 074°25'2 5.7
2017-Nov-18 14:00N 39°19' W 074°27'3 5.6
2017-Nov-18 13:30N 39°18' W 074°30'5 4.1
2017-Nov-18 12:24N 39°21' W 074°26'3 3.0
2017-Nov-18 11:21N 39°24' W 074°26'  
2017-Nov-14 11:07N 39°23' W 074°25'1 0.7
2017-Nov-14 09:23N 39°24' W 074°26'0 0.0
2017-Nov-14 08:59N 39°24' W 074°26'0 0.0
2017-Nov-14 08:29N 39°24' W 074°26'0 0.0
2017-Nov-14 07:59N 39°24' W 074°26'0 0.0
2017-Nov-14 07:29N 39°24' W 074°26'0 0.0
2017-Nov-14 06:53N 39°24' W 074°26'0 0.0
2017-Nov-14 06:29N 39°24' W 074°26'26 0.9
2017-Nov-13 01:51N 39°46' W 074°07'0 0.0
2017-Nov-13 00:30N 39°46' W 074°07'0 0.0
2017-Nov-12 23:59N 39°46' W 074°07'0 0.0
2017-Nov-12 23:24N 39°46' W 074°07'0 0.0
2017-Nov-12 20:20N 39°46' W 074°07'0 0.5
2017-Nov-12 19:59N 39°46' W 074°07'0 0.1
2017-Nov-12 18:03N 39°46' W 074°07'0 0.0
2017-Nov-12 17:57N 39°46' W 074°07'0 0.3
2017-Nov-12 16:33N 39°46' W 074°07'0 0.7
2017-Nov-12 16:25N 39°46' W 074°07'1 2.8
2017-Nov-12 15:59N 39°46' W 074°06'3 5.3
2017-Nov-12 15:30N 39°48' W 074°04'9 3.5
2017-Nov-12 12:58N 39°57' W 074°04'3 6.5
2017-Nov-12 12:30N 39°54' W 074°03'4 7.8
2017-Nov-12 12:01N 39°50' W 074°04'4 8.3
2017-Nov-12 11:30N 39°46' W 074°05'1 2.4
2017-Nov-12 10:54N 39°46' W 074°07'0 0.0
2017-Nov-12 10:27N 39°46' W 074°07'3 5.7
2017-Nov-12 10:00N 39°47' W 074°04'1 0.4
2017-Nov-12 06:47N 39°46' W 074°04'3 2.2
2017-Nov-12 05:29N 39°43' W 074°06'1 2.4
2017-Nov-12 04:53N 39°42' W 074°07'1 2.5
2017-Nov-12 04:17N 39°41' W 074°07'1 2.5
2017-Nov-12 03:59N 39°40' W 074°08'  

Dump ship's entire track history